createdAt,value
2018-04-01T00:01:13.280Z,1.90
2018-04-01T00:03:41.978Z,2.80
2018-04-01T00:06:11.061Z,2.17
2018-04-01T00:08:38.761Z,2.60
2018-04-01T00:11:07.386Z,3.97
2018-04-01T00:13:35.074Z,2.33
2018-04-01T00:16:03.154Z,6.97
2018-04-01T00:18:34.206Z,2.17
2018-04-01T00:21:04.991Z,6.30
2018-04-01T00:23:36.216Z,2.45
2018-04-01T00:26:06.570Z,2.58
2018-04-01T00:28:35.766Z,3.92
2018-04-01T00:31:03.510Z,2.20
2018-04-01T00:33:39.019Z,2.42
2018-04-01T00:36:09.273Z,3.25
2018-04-01T00:38:40.878Z,5.00
2018-04-01T00:41:10.380Z,3.12
2018-04-01T00:43:40.027Z,3.75
2018-04-01T00:46:09.267Z,2.30
2018-04-01T00:48:39.629Z,2.55
2018-04-01T00:51:08.855Z,3.05
2018-04-01T00:53:36.557Z,2.60
2018-04-01T00:56:05.338Z,3.47
2018-04-01T00:58:41.586Z,3.15
2018-04-01T01:01:11.500Z,2.67
2018-04-01T01:03:41.451Z,1.70
2018-04-01T01:06:09.420Z,2.42
2018-04-01T01:08:38.687Z,3.37
2018-04-01T01:11:07.229Z,2.92
2018-04-01T01:13:36.817Z,2.70
2018-04-01T01:16:06.275Z,2.78
2018-04-01T01:18:34.845Z,5.87
2018-04-01T01:21:03.901Z,4.82
2018-04-01T01:23:38.884Z,3.65
2018-04-01T01:26:07.145Z,2.80
2018-04-01T01:28:38.410Z,4.35
2018-04-01T01:31:06.090Z,2.72
2018-04-01T01:33:36.316Z,3.28
2018-04-01T01:36:05.322Z,2.90
2018-04-01T01:38:34.641Z,5.87
2018-04-01T01:41:03.575Z,3.53
2018-04-01T01:43:38.269Z,6.32
2018-04-01T01:46:10.042Z,4.90
2018-04-01T01:48:38.926Z,3.40
2018-04-01T01:51:07.753Z,3.92
2018-04-01T01:53:38.410Z,6.10
2018-04-01T01:56:06.934Z,3.55
2018-04-01T01:58:35.195Z,3.12
2018-04-01T02:01:02.891Z,5.28
2018-04-01T02:03:35.082Z,4.18
2018-04-01T02:06:03.116Z,3.60
2018-04-01T02:08:31.210Z,3.85
2018-04-01T02:10:58.886Z,5.35
2018-04-01T02:13:26.986Z,4.57
2018-04-01T02:15:54.664Z,4.80
2018-04-01T02:18:23.574Z,5.90
2018-04-01T02:20:51.295Z,5.50
2018-04-01T02:23:26.465Z,4.20
2018-04-01T02:25:56.232Z,6.28
2018-04-01T02:28:26.424Z,5.18
2018-04-01T02:30:57.524Z,4.37
2018-04-01T02:33:32.532Z,4.72
2018-04-01T02:36:01.173Z,4.32
2018-04-01T02:38:28.939Z,5.00
2018-04-01T02:40:58.641Z,3.85
2018-04-01T02:43:29.772Z,3.92
2018-04-01T02:45:59.355Z,4.80
2018-04-01T02:48:27.295Z,4.30
2018-04-01T02:50:57.746Z,4.93
2018-04-01T02:53:33.734Z,4.25
2018-04-01T02:56:09.082Z,4.80
2018-04-01T02:58:36.762Z,3.95
2018-04-01T03:01:12.292Z,4.45
2018-04-01T03:03:43.496Z,3.03
2018-04-01T03:06:15.018Z,3.40
2018-04-01T03:08:44.943Z,3.70
2018-04-01T03:11:13.907Z,4.18
2018-04-01T03:13:41.966Z,5.65
2018-04-01T03:16:10.606Z,4.50
2018-04-01T03:18:38.418Z,4.28
2018-04-01T03:21:09.957Z,4.87
2018-04-01T03:23:38.578Z,3.47
2018-04-01T03:26:07.043Z,3.83
2018-04-01T03:28:34.776Z,3.40
2018-04-01T03:31:03.203Z,4.10
2018-04-01T03:33:31.320Z,5.35
2018-04-01T03:35:59.706Z,3.67
2018-04-01T03:38:27.521Z,3.65
2018-04-01T03:40:55.196Z,3.67
2018-04-01T03:43:22.869Z,3.80
2018-04-01T03:45:50.552Z,3.83
2018-04-01T03:48:19.136Z,3.78
2018-04-01T03:50:46.814Z,3.42
2018-04-01T03:53:14.530Z,3.62
2018-04-01T03:55:43.063Z,3.87
2018-04-01T03:58:10.771Z,4.57
2018-04-01T04:00:39.912Z,3.47
2018-04-01T04:03:08.504Z,6.97
2018-04-01T04:05:37.250Z,4.57
2018-04-01T04:08:05.056Z,3.40
2018-04-01T04:10:32.761Z,4.25
2018-04-01T04:13:00.568Z,3.80
2018-04-01T04:15:29.476Z,4.70
2018-04-01T04:17:57.904Z,3.90
2018-04-01T04:20:25.602Z,4.40
2018-04-01T04:22:58.393Z,4.57
2018-04-01T04:25:26.828Z,4.68
2018-04-01T04:28:08.558Z,5.60
2018-04-01T04:30:36.246Z,5.05
2018-04-01T04:33:03.992Z,5.37
2018-04-01T04:35:32.312Z,4.62
2018-04-01T04:37:59.971Z,4.72
2018-04-01T04:40:29.178Z,4.72
2018-04-01T04:43:03.120Z,4.62
2018-04-01T04:45:33.929Z,4.62
2018-04-01T04:48:08.542Z,3.87
2018-04-01T04:50:37.067Z,5.40
2018-04-01T04:53:09.168Z,3.95
2018-04-01T04:55:40.900Z,4.50
2018-04-01T04:58:08.612Z,3.83
2018-04-01T05:00:37.063Z,3.65
2018-04-01T05:03:07.468Z,5.30
2018-04-01T05:05:36.063Z,6.65
2018-04-01T05:08:04.528Z,4.40
2018-04-01T05:10:32.232Z,3.70
2018-04-01T05:12:59.949Z,4.32
2018-04-01T05:15:27.921Z,4.30
2018-04-01T05:17:55.611Z,5.50
2018-04-01T05:20:23.674Z,4.50
2018-04-01T05:22:51.473Z,3.70
2018-04-01T05:25:19.131Z,4.47
2018-04-01T05:27:46.817Z,3.12
2018-04-01T05:30:15.196Z,3.95
2018-04-01T05:32:44.599Z,3.50
2018-04-01T05:35:12.551Z,3.33
2018-04-01T05:37:40.787Z,3.92
2018-04-01T05:40:08.449Z,3.05
2018-04-01T05:42:36.180Z,2.97
2018-04-01T05:45:04.724Z,3.95
2018-04-01T05:47:34.102Z,3.90
2018-04-01T05:50:01.783Z,4.28
2018-04-01T05:52:32.366Z,2.97
2018-04-01T05:55:00.074Z,4.60
2018-04-01T05:57:28.596Z,3.40
2018-04-01T05:59:57.465Z,3.60
2018-04-01T06:02:26.562Z,2.87
2018-04-01T06:04:54.241Z,3.50
2018-04-01T06:07:22.893Z,3.37
2018-04-01T06:09:52.608Z,3.37
2018-04-01T06:12:20.452Z,3.60
2018-04-01T06:14:48.491Z,3.03
2018-04-01T06:17:18.145Z,4.93
2018-04-01T06:19:46.087Z,2.70
2018-04-01T06:22:14.665Z,4.10
2018-04-01T06:24:42.931Z,2.78
2018-04-01T06:27:11.924Z,2.90
2018-04-01T06:29:40.496Z,3.37
2018-04-01T06:32:09.916Z,2.80
2018-04-01T06:34:41.387Z,2.72
2018-04-01T06:37:13.827Z,2.17
2018-04-01T06:39:43.397Z,3.20
2018-04-01T06:42:20.347Z,3.12
2018-04-01T06:44:52.736Z,2.40
2018-04-01T06:47:24.374Z,3.45
2018-04-01T06:49:52.994Z,2.47
2018-04-01T06:52:22.875Z,2.22
2018-04-01T06:54:53.253Z,2.83
2018-04-01T06:57:22.281Z,2.55
2018-04-01T06:59:51.990Z,2.50
2018-04-01T07:02:22.992Z,2.60
2018-04-01T07:04:53.401Z,2.95
2018-04-01T07:07:25.403Z,3.50
2018-04-01T07:09:57.209Z,3.10
2018-04-01T07:12:26.742Z,2.95
2018-04-01T07:14:56.142Z,2.80
2018-04-01T07:17:26.187Z,3.08
2018-04-01T07:19:55.532Z,2.40
2018-04-01T07:22:30.126Z,2.72
2018-04-01T07:24:58.392Z,2.70
2018-04-01T07:27:28.105Z,3.60
2018-04-01T07:29:56.930Z,4.05
2018-04-01T07:32:26.723Z,4.00
2018-04-01T07:34:54.716Z,3.37
2018-04-01T07:37:22.455Z,3.25
2018-04-01T07:39:50.138Z,3.40
2018-04-01T07:42:19.578Z,5.80
2018-04-01T07:44:49.070Z,2.92
2018-04-01T07:47:21.604Z,2.90
2018-04-01T07:49:50.148Z,3.40
2018-04-01T07:52:19.327Z,3.33
2018-04-01T07:54:47.936Z,4.60
2018-04-01T07:57:20.219Z,2.78
2018-04-01T07:59:47.926Z,2.50
2018-04-01T08:02:18.813Z,2.55
2018-04-01T08:04:49.968Z,2.90
2018-04-01T08:07:17.683Z,2.53
2018-04-01T08:09:48.812Z,2.97
2018-04-01T08:12:18.553Z,2.80
2018-04-01T08:15:06.334Z,3.65
2018-04-01T08:17:34.826Z,3.12
2018-04-01T08:20:02.510Z,3.17
2018-04-01T08:22:30.363Z,2.65
2018-04-01T08:24:58.021Z,3.53
2018-04-01T08:27:26.056Z,1.77
2018-04-01T08:29:53.994Z,2.90
2018-04-01T08:32:26.460Z,2.85
2018-04-01T08:34:54.133Z,2.75
2018-04-01T08:37:23.860Z,2.37
2018-04-01T08:39:52.364Z,3.62
2018-04-01T08:42:20.844Z,2.75
2018-04-01T08:44:49.195Z,3.47
2018-04-01T08:47:21.113Z,2.83
2018-04-01T08:49:49.556Z,3.50
2018-04-01T08:52:19.437Z,2.35
2018-04-01T08:54:49.242Z,1.73
2018-04-01T08:57:16.995Z,4.55
2018-04-01T08:59:44.651Z,3.50
2018-04-01T09:02:15.375Z,2.67
2018-04-01T09:04:43.070Z,3.87
2018-04-01T09:07:13.657Z,3.58
2018-04-01T09:09:42.422Z,2.97
2018-04-01T09:12:13.262Z,2.50
2018-04-01T09:14:41.789Z,4.55
2018-04-01T09:17:09.441Z,2.10
2018-04-01T09:19:38.122Z,2.53
2018-04-01T09:22:09.655Z,3.80
2018-04-01T09:24:38.327Z,3.10
2018-04-01T09:27:08.692Z,3.12
2018-04-01T09:29:36.374Z,2.70
2018-04-01T09:32:05.037Z,2.58
2018-04-01T09:34:34.354Z,2.92
2018-04-01T09:37:03.142Z,2.65
2018-04-01T09:39:31.562Z,2.90
2018-04-01T09:41:59.334Z,2.95
2018-04-01T09:44:27.976Z,4.10
2018-04-01T09:46:55.679Z,2.72
2018-04-01T09:49:24.921Z,2.20
2018-04-01T09:51:52.669Z,2.50
2018-04-01T09:54:20.366Z,2.40
2018-04-01T09:56:50.154Z,2.47
2018-04-01T09:59:17.867Z,1.70
2018-04-01T10:01:50.104Z,1.60
2018-04-01T10:04:18.295Z,1.85
2018-04-01T10:06:50.257Z,1.90
2018-04-01T10:11:58.759Z,1.35
2018-04-01T10:14:26.954Z,1.48
2018-04-01T10:16:55.882Z,2.10
2018-04-01T10:19:24.040Z,1.08
2018-04-01T10:21:52.359Z,1.23
2018-04-01T10:24:20.511Z,3.50
2018-04-01T10:26:48.686Z,1.15
2018-04-01T10:29:16.856Z,1.45
2018-04-01T10:31:45.550Z,1.12
2018-04-01T10:34:13.718Z,0.90
2018-04-01T10:36:42.081Z,1.35
2018-04-01T10:39:10.276Z,1.50
2018-04-01T10:41:38.447Z,1.37
2018-04-01T10:44:08.212Z,1.20
2018-04-01T10:46:37.074Z,1.25
2018-04-01T10:49:07.881Z,1.75
2018-04-01T10:51:36.972Z,1.70
2018-04-01T10:54:04.667Z,1.70
2018-04-01T10:56:33.149Z,1.50
2018-04-01T10:59:00.857Z,1.83
2018-04-01T11:01:29.295Z,1.30
2018-04-01T11:03:57.002Z,2.25
2018-04-01T11:06:26.260Z,1.23
2018-04-01T11:08:53.958Z,2.20
2018-04-01T11:11:21.651Z,1.85
2018-04-01T11:13:49.356Z,2.53
2018-04-01T11:16:17.050Z,2.12
2018-04-01T11:18:45.599Z,2.20
2018-04-01T11:21:13.276Z,2.30
2018-04-01T11:23:42.614Z,3.70
2018-04-01T11:26:10.288Z,1.98
2018-04-01T11:28:38.774Z,1.35
2018-04-01T11:31:06.449Z,1.75
2018-04-01T11:33:34.146Z,2.20
2018-04-01T11:36:01.834Z,1.70
2018-04-01T11:38:29.492Z,4.72
2018-04-01T11:44:06.506Z,1.83
2018-04-01T11:46:53.312Z,2.53
2018-04-01T11:49:34.508Z,3.17
2018-04-01T11:52:29.861Z,3.20
2018-04-01T11:55:10.457Z,3.58
2018-04-01T11:57:51.387Z,2.35
2018-04-01T12:00:27.145Z,3.80
2018-04-01T12:02:55.840Z,3.30
2018-04-01T12:05:34.125Z,4.93
2018-04-01T12:08:22.289Z,3.47
2018-04-01T12:10:50.033Z,3.42
2018-04-01T12:13:20.773Z,3.33
2018-04-01T12:15:49.966Z,3.00
2018-04-01T12:18:19.602Z,3.05
2018-04-01T12:20:47.219Z,3.10
2018-04-01T12:23:17.878Z,3.03
2018-04-01T12:25:46.709Z,3.67
2018-04-01T12:28:15.503Z,4.45
2018-04-01T12:30:48.361Z,3.62
2018-04-01T12:33:20.664Z,4.20
2018-04-01T12:35:48.349Z,3.65
2018-04-01T12:38:16.111Z,3.00
2018-04-01T12:40:43.775Z,3.90
2018-04-01T12:43:12.515Z,3.42
2018-04-01T12:45:40.189Z,2.70
2018-04-01T12:48:09.034Z,2.55
2018-04-01T12:50:36.733Z,7.12
2018-04-01T12:53:06.357Z,5.35
2018-04-01T12:55:34.831Z,3.95
2018-04-01T12:58:03.293Z,4.12
2018-04-01T13:00:31.196Z,5.40
2018-04-01T13:02:59.780Z,3.95
2018-04-01T13:05:27.455Z,5.53
2018-04-01T13:07:55.131Z,3.92
2018-04-01T13:10:22.809Z,4.03
2018-04-01T13:12:50.599Z,5.75
2018-04-01T13:15:18.296Z,2.90
2018-04-01T13:17:46.087Z,3.60
2018-04-01T13:20:14.416Z,3.65
2018-04-01T13:22:42.254Z,4.25
2018-04-01T13:25:09.949Z,4.18
2018-04-01T13:27:38.574Z,3.70
2018-04-01T13:30:06.516Z,4.20
2018-04-01T13:32:39.708Z,6.85
2018-04-01T13:35:07.393Z,4.32
2018-04-01T13:37:35.176Z,2.95
2018-04-01T13:40:02.916Z,4.62
2018-04-01T13:42:30.805Z,4.05
2018-04-01T13:44:58.468Z,3.92
2018-04-01T13:47:27.037Z,4.50
2018-04-01T13:49:54.699Z,3.42
2018-04-01T13:52:26.078Z,3.87
2018-04-01T13:54:53.769Z,2.95
2018-04-01T13:57:22.393Z,3.10
2018-04-01T13:59:50.065Z,3.10
2018-04-01T14:02:18.891Z,1.73
2018-04-01T14:04:46.583Z,5.10
2018-04-01T14:07:14.261Z,8.70
2018-04-01T14:09:41.926Z,4.50
2018-04-01T14:12:12.905Z,3.08
2018-04-01T14:14:40.577Z,8.73
2018-04-01T14:17:08.243Z,2.97
2018-04-01T14:19:35.921Z,3.95
2018-04-01T14:22:03.718Z,3.37
2018-04-01T14:24:31.406Z,2.60
2018-04-01T14:26:59.058Z,3.37
2018-04-01T14:29:26.718Z,3.42
2018-04-01T14:31:55.247Z,3.47
2018-04-01T14:34:23.171Z,3.62
2018-04-01T14:36:52.390Z,3.40
2018-04-01T14:39:20.045Z,2.55
2018-04-01T14:41:51.577Z,4.75
2018-04-01T14:44:19.238Z,2.72
2018-04-01T14:46:46.898Z,4.65
2018-04-01T14:49:14.563Z,3.05
2018-04-01T14:51:43.021Z,3.05
2018-04-01T14:54:10.668Z,6.10
2018-04-01T14:56:39.099Z,5.97
2018-04-01T14:59:06.760Z,3.47
2018-04-01T15:01:34.432Z,3.33
2018-04-01T15:04:02.120Z,3.00
2018-04-01T15:06:29.824Z,3.03
2018-04-01T15:08:57.480Z,4.75
2018-04-01T15:11:25.914Z,3.30
2018-04-01T15:13:53.594Z,2.20
2018-04-01T15:16:21.263Z,2.40
2018-04-01T15:18:49.716Z,3.17
2018-04-01T15:21:17.419Z,4.07
2018-04-01T15:23:45.930Z,4.97
2018-04-01T15:26:13.581Z,4.20
2018-04-01T15:28:41.248Z,2.50
2018-04-01T15:31:08.948Z,4.30
2018-04-01T15:33:37.362Z,3.62
2018-04-01T15:36:05.038Z,4.18
2018-04-01T15:38:33.472Z,4.68
2018-04-01T15:41:01.113Z,4.32
2018-04-01T15:43:29.913Z,4.07
2018-04-01T15:45:57.603Z,3.72
2018-04-01T15:48:25.274Z,3.50
2018-04-01T15:50:53.823Z,3.53
2018-04-01T15:53:24.651Z,3.60
2018-04-01T15:55:52.309Z,4.60
2018-04-01T15:58:19.988Z,3.78
2018-04-01T16:00:47.676Z,4.32
2018-04-01T16:03:15.699Z,3.10
2018-04-01T16:05:45.154Z,4.53
2018-04-01T16:08:13.594Z,3.92
2018-04-01T16:10:41.261Z,4.90
2018-04-01T16:13:09.007Z,3.95
2018-04-01T16:15:36.714Z,7.07
2018-04-01T16:18:04.367Z,5.75
2018-04-01T16:20:32.256Z,5.15
2018-04-01T16:23:01.226Z,4.57
2018-04-01T16:25:28.928Z,4.15
2018-04-01T16:27:56.632Z,4.45
2018-04-01T16:30:24.500Z,5.05
2018-04-01T16:32:56.054Z,4.95
2018-04-01T16:35:24.902Z,4.95
2018-04-01T16:43:08.074Z,4.30
2018-04-01T16:45:35.827Z,4.57
2018-04-01T16:48:03.497Z,5.18
2018-04-01T16:50:31.226Z,5.57
2018-04-01T16:52:59.858Z,3.62
2018-04-01T16:55:27.562Z,3.70
2018-04-01T16:57:55.309Z,5.50
2018-04-01T17:00:22.974Z,4.32
2018-04-01T17:02:51.536Z,5.62
2018-04-01T17:05:19.686Z,3.60
2018-04-01T17:07:47.383Z,5.50
2018-04-01T17:10:15.051Z,6.45
2018-04-01T17:12:42.814Z,4.85
2018-04-01T17:15:10.585Z,5.18
2018-04-01T17:17:38.258Z,4.95
2018-04-01T17:20:06.598Z,3.85
2018-04-01T17:22:35.329Z,5.20
2018-04-01T17:25:03.014Z,4.12
2018-04-01T17:27:30.689Z,4.87
2018-04-01T17:29:58.347Z,5.85
2018-04-01T17:32:27.082Z,4.65
2018-04-01T17:34:54.754Z,5.22
2018-04-01T17:37:22.432Z,5.15
2018-04-01T17:39:50.126Z,6.00
2018-04-01T17:42:17.824Z,4.87
2018-04-01T17:44:45.511Z,4.93
2018-04-01T17:47:13.190Z,6.60
2018-04-01T17:49:40.848Z,5.32
2018-04-01T17:52:12.570Z,3.40
2018-04-01T17:54:40.231Z,5.80
2018-04-01T17:57:12.810Z,3.90
2018-04-01T17:59:40.497Z,4.07
2018-04-01T18:02:09.163Z,4.35
2018-04-01T18:04:36.826Z,5.57
2018-04-01T18:07:04.505Z,4.47
2018-04-01T18:09:32.180Z,5.18
2018-04-01T18:11:59.843Z,6.20
2018-04-01T18:14:27.497Z,5.47
2018-04-01T18:16:55.171Z,5.10
2018-04-01T18:19:22.899Z,5.07
2018-04-01T18:21:51.076Z,4.43
2018-04-01T18:24:18.754Z,6.55
2018-04-01T18:26:46.414Z,6.55
2018-04-01T18:29:14.081Z,6.75
2018-04-01T18:31:41.765Z,6.82
2018-04-01T18:34:09.433Z,8.63
2018-04-01T18:36:37.151Z,6.07
2018-04-01T18:39:04.835Z,7.03
2018-04-01T18:41:32.579Z,7.00
2018-04-01T18:44:00.308Z,6.10
2018-04-01T18:46:27.994Z,8.55
2018-04-01T18:48:55.675Z,8.63
2018-04-01T18:51:23.387Z,7.53
2018-04-01T18:53:51.054Z,9.32
2018-04-01T18:56:18.721Z,7.40
2018-04-01T18:58:46.410Z,10.27
2018-04-01T19:01:14.112Z,7.57
2018-04-01T19:03:43.776Z,7.30
2018-04-01T19:06:11.455Z,11.25
2018-04-01T19:08:39.135Z,8.52
2018-04-01T19:11:06.809Z,12.23
2018-04-01T19:13:34.697Z,7.72
2018-04-01T19:16:02.877Z,13.55
2018-04-01T19:18:31.055Z,10.98
2018-04-01T19:20:59.214Z,10.45
2018-04-01T19:23:31.750Z,7.78
2018-04-01T19:25:59.967Z,8.80
2018-04-01T19:28:28.925Z,9.73
2018-04-01T19:30:57.102Z,8.65
2018-04-01T19:33:29.329Z,10.65
2018-04-01T19:35:57.710Z,10.30
2018-04-01T19:38:25.884Z,11.05
2018-04-01T19:40:54.131Z,9.98
2018-04-01T19:43:22.420Z,9.18
2018-04-01T19:46:03.718Z,11.50
2018-04-01T19:49:01.479Z,12.23
2018-04-01T19:51:29.671Z,7.18
2018-04-01T19:53:57.889Z,10.13
2018-04-01T19:56:26.061Z,11.35
2018-04-01T19:58:54.266Z,8.95
2018-04-01T20:01:22.474Z,10.25
2018-04-01T20:03:50.670Z,9.45
2018-04-01T20:06:18.860Z,8.80
2018-04-01T20:08:47.794Z,11.45
2018-04-01T20:11:15.985Z,8.73
2018-04-01T20:13:51.982Z,9.82
2018-04-01T20:16:21.655Z,11.12
2018-04-01T20:18:51.353Z,8.88
2018-04-01T20:21:20.303Z,11.98
2018-04-01T20:23:48.722Z,12.27
2018-04-01T20:26:16.928Z,11.57
2018-04-01T20:28:45.129Z,13.20
2018-04-01T20:31:13.319Z,12.30
2018-04-01T20:33:42.426Z,10.15
2018-04-01T20:36:10.634Z,14.23
2018-04-01T20:38:38.801Z,13.15
2018-04-01T20:41:06.954Z,10.38
2018-04-01T20:43:35.155Z,12.00
2018-04-01T20:46:03.320Z,11.40
2018-04-01T20:48:31.500Z,12.77
2018-04-01T20:50:59.661Z,10.90
2018-04-01T20:53:28.858Z,10.02
2018-04-01T20:55:57.001Z,12.57
2018-04-01T20:58:25.939Z,11.55
2018-04-01T21:00:54.104Z,10.73
2018-04-01T21:03:22.356Z,9.68
2018-04-01T21:05:50.513Z,14.63
2018-04-01T21:08:18.675Z,12.90
2018-04-01T21:10:46.819Z,13.93
2018-04-01T21:13:15.077Z,15.32
2018-04-01T21:15:43.240Z,12.40
2018-04-01T21:18:11.407Z,9.77
2018-04-01T21:20:39.587Z,7.53
2018-04-01T21:23:14.745Z,13.68
2018-04-01T21:28:36.001Z,9.82
2018-04-01T21:34:11.548Z,11.90
2018-04-01T21:36:40.682Z,11.10
2018-04-01T21:39:16.392Z,14.90
2018-04-01T21:41:44.557Z,8.02
2018-04-01T21:44:15.189Z,10.65
2018-04-01T21:46:43.391Z,8.48
2018-04-01T21:49:11.558Z,9.55
2018-04-01T21:51:47.597Z,10.10
2018-04-01T21:54:16.544Z,8.82
2018-04-01T21:56:44.739Z,12.73
2018-04-01T21:59:12.916Z,10.10
2018-04-01T22:01:41.074Z,8.43
2018-04-01T22:04:10.008Z,9.82
2018-04-01T22:06:38.958Z,11.90
2018-04-01T22:09:07.149Z,7.97
2018-04-01T22:11:35.648Z,9.70
2018-04-01T22:14:03.988Z,11.48
2018-04-01T22:16:34.612Z,12.90
2018-04-01T22:19:04.640Z,11.25
2018-04-01T22:21:32.955Z,11.60
2018-04-01T22:24:01.105Z,12.18
2018-04-01T22:26:29.273Z,11.43
2018-04-01T22:28:58.223Z,12.13
2018-04-01T22:31:26.404Z,12.20
2018-04-01T22:33:54.574Z,29.30
2018-04-01T22:36:22.738Z,9.68
2018-04-01T22:38:51.786Z,9.63
2018-04-01T22:41:20.004Z,9.98
2018-04-01T22:43:49.261Z,13.80
2018-04-01T22:46:17.413Z,11.30
2018-04-01T22:48:46.344Z,12.95
2018-04-01T22:51:14.600Z,13.48
2018-04-01T22:53:42.776Z,13.15
2018-04-01T22:56:11.230Z,14.95
2018-04-01T22:58:40.236Z,11.48
2018-04-01T23:01:09.173Z,16.98
2018-04-01T23:03:40.817Z,15.07
2018-04-01T23:06:12.030Z,12.00
2018-04-01T23:08:40.990Z,12.88
2018-04-01T23:11:09.331Z,13.45
2018-04-01T23:13:37.647Z,13.02
2018-04-01T23:16:05.809Z,13.20
2018-04-01T23:18:35.168Z,13.48
2018-04-01T23:21:03.361Z,11.82
2018-04-01T23:23:41.458Z,12.50
2018-04-01T23:26:10.220Z,12.07
2018-04-01T23:28:38.383Z,13.00
2018-04-01T23:31:07.316Z,11.25
2018-04-01T23:33:35.550Z,10.05
2018-04-01T23:36:03.703Z,13.75
2018-04-01T23:38:32.833Z,12.93
2018-04-01T23:41:01.012Z,12.15
2018-04-01T23:43:29.997Z,13.20
2018-04-01T23:45:58.925Z,13.43
2018-04-01T23:48:27.695Z,12.90
2018-04-01T23:50:55.855Z,13.32
2018-04-01T23:53:28.547Z,12.20
2018-04-01T23:56:03.770Z,15.18
2018-04-01T23:58:31.951Z,14.00
